sensor_id;sensor_type;location;lat;lon;timestamp;P1;durP1;ratioP1;P2;durP2;ratioP2
11203;SDS011;5659;49.408;11.116;2023-06-22T00:01:27;14.57;;;12.25;;
11203;SDS011;5659;49.408;11.116;2023-06-22T00:03:53;14.23;;;11.35;;
11203;SDS011;5659;49.408;11.116;2023-06-22T00:06:19;16.55;;;11.95;;
11203;SDS011;5659;49.408;11.116;2023-06-22T00:08:46;18.98;;;12.43;;
11203;SDS011;5659;49.408;11.116;2023-06-22T00:11:12;15.10;;;12.20;;
11203;SDS011;5659;49.408;11.116;2023-06-22T00:13:39;16.00;;;12.88;;
11203;SDS011;5659;49.408;11.116;2023-06-22T00:16:05;17.02;;;12.85;;
11203;SDS011;5659;49.408;11.116;2023-06-22T00:18:31;15.93;;;12.57;;
11203;SDS011;5659;49.408;11.116;2023-06-22T00:20:57;12.73;;;11.43;;
11203;SDS011;5659;49.408;11.116;2023-06-22T00:23:23;18.85;;;12.18;;
11203;SDS011;5659;49.408;11.116;2023-06-22T00:25:49;15.32;;;12.15;;
11203;SDS011;5659;49.408;11.116;2023-06-22T00:28:15;15.25;;;11.93;;
11203;SDS011;5659;49.408;11.116;2023-06-22T00:30:41;15.27;;;11.63;;
11203;SDS011;5659;49.408;11.116;2023-06-22T00:33:07;16.02;;;11.52;;
11203;SDS011;5659;49.408;11.116;2023-06-22T00:35:33;17.60;;;12.25;;
11203;SDS011;5659;49.408;11.116;2023-06-22T00:38:00;16.65;;;11.70;;
11203;SDS011;5659;49.408;11.116;2023-06-22T00:40:27;13.57;;;12.00;;
11203;SDS011;5659;49.408;11.116;2023-06-22T00:42:53;15.52;;;12.48;;
11203;SDS011;5659;49.408;11.116;2023-06-22T00:45:20;16.88;;;12.88;;
11203;SDS011;5659;49.408;11.116;2023-06-22T00:47:47;16.40;;;12.80;;
11203;SDS011;5659;49.408;11.116;2023-06-22T00:50:16;15.70;;;12.32;;
11203;SDS011;5659;49.408;11.116;2023-06-22T00:52:45;18.27;;;13.88;;
11203;SDS011;5659;49.408;11.116;2023-06-22T00:55:11;20.38;;;13.05;;
11203;SDS011;5659;49.408;11.116;2023-06-22T00:57:37;18.95;;;12.93;;
11203;SDS011;5659;49.408;11.116;2023-06-22T01:00:04;15.10;;;12.77;;
11203;SDS011;5659;49.408;11.116;2023-06-22T01:02:34;15.07;;;13.48;;
11203;SDS011;5659;49.408;11.116;2023-06-22T01:05:01;21.40;;;13.95;;
11203;SDS011;5659;49.408;11.116;2023-06-22T01:10:07;16.40;;;13.30;;
11203;SDS011;5659;49.408;11.116;2023-06-22T01:12:35;19.42;;;12.95;;
11203;SDS011;5659;49.408;11.116;2023-06-22T01:15:04;17.13;;;13.52;;
11203;SDS011;5659;49.408;11.116;2023-06-22T01:17:34;16.15;;;12.90;;
11203;SDS011;5659;49.408;11.116;2023-06-22T01:20:01;14.55;;;12.77;;
11203;SDS011;5659;49.408;11.116;2023-06-22T01:22:30;18.63;;;12.98;;
11203;SDS011;5659;49.408;11.116;2023-06-22T01:25:11;14.50;;;13.00;;
11203;SDS011;5659;49.408;11.116;2023-06-22T01:30:06;13.63;;;11.98;;
11203;SDS011;5659;49.408;11.116;2023-06-22T01:32:36;21.25;;;12.90;;
11203;SDS011;5659;49.408;11.116;2023-06-22T01:35:03;17.00;;;13.35;;
11203;SDS011;5659;49.408;11.116;2023-06-22T01:37:30;17.92;;;13.75;;
11203;SDS011;5659;49.408;11.116;2023-06-22T01:39:57;16.80;;;13.77;;
11203;SDS011;5659;49.408;11.116;2023-06-22T01:42:24;19.70;;;14.80;;
11203;SDS011;5659;49.408;11.116;2023-06-22T01:44:50;18.17;;;14.57;;
11203;SDS011;5659;49.408;11.116;2023-06-22T01:47:17;19.92;;;14.07;;
11203;SDS011;5659;49.408;11.116;2023-06-22T01:49:43;16.90;;;14.25;;
11203;SDS011;5659;49.408;11.116;2023-06-22T01:52:09;18.50;;;13.18;;
11203;SDS011;5659;49.408;11.116;2023-06-22T01:54:37;18.38;;;13.82;;
11203;SDS011;5659;49.408;11.116;2023-06-22T01:57:04;16.95;;;13.50;;
11203;SDS011;5659;49.408;11.116;2023-06-22T01:59:34;18.48;;;13.70;;
11203;SDS011;5659;49.408;11.116;2023-06-22T02:02:11;21.75;;;14.63;;
11203;SDS011;5659;49.408;11.116;2023-06-22T02:04:44;19.20;;;14.43;;
11203;SDS011;5659;49.408;11.116;2023-06-22T02:07:13;33.47;;;15.02;;
11203;SDS011;5659;49.408;11.116;2023-06-22T02:09:41;63.13;;;20.35;;
11203;SDS011;5659;49.408;11.116;2023-06-22T02:12:10;21.58;;;15.02;;
11203;SDS011;5659;49.408;11.116;2023-06-22T02:14:37;18.25;;;13.43;;
11203;SDS011;5659;49.408;11.116;2023-06-22T02:17:03;24.40;;;14.98;;
11203;SDS011;5659;49.408;11.116;2023-06-22T02:19:35;20.38;;;13.98;;
11203;SDS011;5659;49.408;11.116;2023-06-22T02:22:01;19.48;;;14.15;;
11203;SDS011;5659;49.408;11.116;2023-06-22T02:24:27;25.75;;;15.27;;
11203;SDS011;5659;49.408;11.116;2023-06-22T02:26:55;21.38;;;14.40;;
11203;SDS011;5659;49.408;11.116;2023-06-22T02:29:22;19.83;;;13.60;;
11203;SDS011;5659;49.408;11.116;2023-06-22T02:31:48;17.65;;;13.50;;
11203;SDS011;5659;49.408;11.116;2023-06-22T02:34:14;23.92;;;16.05;;
11203;SDS011;5659;49.408;11.116;2023-06-22T02:36:44;18.17;;;14.23;;
11203;SDS011;5659;49.408;11.116;2023-06-22T02:39:16;15.05;;;13.10;;
11203;SDS011;5659;49.408;11.116;2023-06-22T02:41:42;18.60;;;13.60;;
11203;SDS011;5659;49.408;11.116;2023-06-22T02:44:08;17.73;;;12.75;;
11203;SDS011;5659;49.408;11.116;2023-06-22T02:46:35;20.25;;;14.00;;
11203;SDS011;5659;49.408;11.116;2023-06-22T02:49:01;15.45;;;13.45;;
11203;SDS011;5659;49.408;11.116;2023-06-22T02:51:27;18.35;;;13.02;;
11203;SDS011;5659;49.408;11.116;2023-06-22T02:53:53;15.77;;;12.82;;
11203;SDS011;5659;49.408;11.116;2023-06-22T02:56:22;22.42;;;14.05;;
11203;SDS011;5659;49.408;11.116;2023-06-22T02:58:50;21.52;;;13.25;;
11203;SDS011;5659;49.408;11.116;2023-06-22T03:01:16;17.23;;;13.45;;
11203;SDS011;5659;49.408;11.116;2023-06-22T03:03:48;20.02;;;14.05;;
11203;SDS011;5659;49.408;11.116;2023-06-22T03:06:14;17.38;;;13.32;;
11203;SDS011;5659;49.408;11.116;2023-06-22T03:08:40;16.23;;;13.25;;
11203;SDS011;5659;49.408;11.116;2023-06-22T03:11:07;16.75;;;13.93;;
11203;SDS011;5659;49.408;11.116;2023-06-22T03:13:33;22.45;;;14.40;;
11203;SDS011;5659;49.408;11.116;2023-06-22T03:15:59;18.70;;;13.93;;
11203;SDS011;5659;49.408;11.116;2023-06-22T03:18:25;17.17;;;13.90;;
11203;SDS011;5659;49.408;11.116;2023-06-22T03:20:51;19.05;;;14.65;;
11203;SDS011;5659;49.408;11.116;2023-06-22T03:23:17;17.05;;;13.57;;
11203;SDS011;5659;49.408;11.116;2023-06-22T03:25:43;15.35;;;13.32;;
11203;SDS011;5659;49.408;11.116;2023-06-22T03:28:09;16.77;;;13.90;;
11203;SDS011;5659;49.408;11.116;2023-06-22T03:30:35;18.35;;;13.57;;
11203;SDS011;5659;49.408;11.116;2023-06-22T03:33:01;16.17;;;13.85;;
11203;SDS011;5659;49.408;11.116;2023-06-22T03:35:27;22.65;;;14.68;;
11203;SDS011;5659;49.408;11.116;2023-06-22T03:37:53;20.55;;;13.52;;
11203;SDS011;5659;49.408;11.116;2023-06-22T03:40:19;22.10;;;14.95;;
11203;SDS011;5659;49.408;11.116;2023-06-22T03:42:46;16.38;;;14.23;;
11203;SDS011;5659;49.408;11.116;2023-06-22T03:45:12;20.45;;;14.65;;
11203;SDS011;5659;49.408;11.116;2023-06-22T03:47:38;20.38;;;14.30;;
11203;SDS011;5659;49.408;11.116;2023-06-22T03:50:04;20.58;;;15.32;;
11203;SDS011;5659;49.408;11.116;2023-06-22T03:52:31;25.60;;;14.60;;
11203;SDS011;5659;49.408;11.116;2023-06-22T03:54:57;19.70;;;14.07;;
11203;SDS011;5659;49.408;11.116;2023-06-22T03:57:23;17.33;;;14.02;;
11203;SDS011;5659;49.408;11.116;2023-06-22T03:59:49;19.48;;;15.15;;
11203;SDS011;5659;49.408;11.116;2023-06-22T04:02:15;17.25;;;14.18;;
11203;SDS011;5659;49.408;11.116;2023-06-22T04:04:41;17.25;;;14.30;;
11203;SDS011;5659;49.408;11.116;2023-06-22T04:07:07;17.80;;;13.80;;
11203;SDS011;5659;49.408;11.116;2023-06-22T04:09:33;18.17;;;14.73;;
11203;SDS011;5659;49.408;11.116;2023-06-22T04:11:59;14.50;;;13.00;;
11203;SDS011;5659;49.408;11.116;2023-06-22T04:14:25;15.48;;;13.32;;
11203;SDS011;5659;49.408;11.116;2023-06-22T04:16:51;18.63;;;14.25;;
11203;SDS011;5659;49.408;11.116;2023-06-22T04:19:17;19.55;;;13.43;;
11203;SDS011;5659;49.408;11.116;2023-06-22T04:21:43;17.52;;;13.35;;
11203;SDS011;5659;49.408;11.116;2023-06-22T04:24:10;15.68;;;13.30;;
11203;SDS011;5659;49.408;11.116;2023-06-22T04:26:36;16.60;;;13.65;;
11203;SDS011;5659;49.408;11.116;2023-06-22T04:29:03;15.95;;;12.43;;
11203;SDS011;5659;49.408;11.116;2023-06-22T04:31:33;17.52;;;13.13;;
11203;SDS011;5659;49.408;11.116;2023-06-22T04:34:01;18.77;;;13.27;;
11203;SDS011;5659;49.408;11.116;2023-06-22T04:36:35;20.30;;;12.93;;
11203;SDS011;5659;49.408;11.116;2023-06-22T04:39:08;16.08;;;12.98;;
11203;SDS011;5659;49.408;11.116;2023-06-22T04:41:35;18.05;;;13.68;;
11203;SDS011;5659;49.408;11.116;2023-06-22T04:46:36;18.23;;;13.70;;
11203;SDS011;5659;49.408;11.116;2023-06-22T04:49:06;18.23;;;12.80;;
11203;SDS011;5659;49.408;11.116;2023-06-22T04:51:36;18.00;;;13.32;;
11203;SDS011;5659;49.408;11.116;2023-06-22T04:54:03;16.35;;;13.32;;
11203;SDS011;5659;49.408;11.116;2023-06-22T04:56:30;15.02;;;12.73;;
11203;SDS011;5659;49.408;11.116;2023-06-22T04:58:56;17.83;;;12.68;;
11203;SDS011;5659;49.408;11.116;2023-06-22T05:01:22;19.42;;;12.10;;
11203;SDS011;5659;49.408;11.116;2023-06-22T05:03:49;14.10;;;12.55;;
11203;SDS011;5659;49.408;11.116;2023-06-22T05:06:15;14.38;;;11.68;;
11203;SDS011;5659;49.408;11.116;2023-06-22T05:08:42;16.67;;;12.63;;
11203;SDS011;5659;49.408;11.116;2023-06-22T05:11:08;14.05;;;12.55;;
11203;SDS011;5659;49.408;11.116;2023-06-22T05:13:34;19.10;;;11.85;;
11203;SDS011;5659;49.408;11.116;2023-06-22T05:16:00;12.32;;;10.93;;
11203;SDS011;5659;49.408;11.116;2023-06-22T05:18:30;12.40;;;10.88;;
11203;SDS011;5659;49.408;11.116;2023-06-22T05:20:57;15.38;;;12.07;;
11203;SDS011;5659;49.408;11.116;2023-06-22T05:23:23;14.95;;;12.10;;
11203;SDS011;5659;49.408;11.116;2023-06-22T05:25:50;14.52;;;12.00;;
11203;SDS011;5659;49.408;11.116;2023-06-22T05:28:17;16.20;;;11.13;;
11203;SDS011;5659;49.408;11.116;2023-06-22T05:30:48;17.73;;;10.95;;
11203;SDS011;5659;49.408;11.116;2023-06-22T05:33:14;13.63;;;12.15;;
11203;SDS011;5659;49.408;11.116;2023-06-22T05:35:39;13.70;;;10.48;;
11203;SDS011;5659;49.408;11.116;2023-06-22T05:38:06;14.23;;;10.20;;
11203;SDS011;5659;49.408;11.116;2023-06-22T05:40:32;13.52;;;10.82;;
11203;SDS011;5659;49.408;11.116;2023-06-22T05:42:58;12.63;;;10.35;;
11203;SDS011;5659;49.408;11.116;2023-06-22T05:45:26;12.88;;;10.27;;
11203;SDS011;5659;49.408;11.116;2023-06-22T05:47:52;11.55;;;9.50;;
11203;SDS011;5659;49.408;11.116;2023-06-22T05:50:18;13.43;;;9.60;;
11203;SDS011;5659;49.408;11.116;2023-06-22T05:52:44;15.50;;;10.15;;
11203;SDS011;5659;49.408;11.116;2023-06-22T05:55:10;12.13;;;9.23;;
11203;SDS011;5659;49.408;11.116;2023-06-22T05:57:36;15.48;;;9.52;;
11203;SDS011;5659;49.408;11.116;2023-06-22T06:00:12;13.48;;;9.60;;
11203;SDS011;5659;49.408;11.116;2023-06-22T06:02:39;13.48;;;9.10;;
11203;SDS011;5659;49.408;11.116;2023-06-22T06:05:09;10.30;;;9.10;;
11203;SDS011;5659;49.408;11.116;2023-06-22T06:07:35;11.77;;;8.85;;
11203;SDS011;5659;49.408;11.116;2023-06-22T06:10:02;13.35;;;9.18;;
11203;SDS011;5659;49.408;11.116;2023-06-22T06:12:29;13.20;;;8.68;;
11203;SDS011;5659;49.408;11.116;2023-06-22T06:14:55;12.32;;;9.13;;
11203;SDS011;5659;49.408;11.116;2023-06-22T06:17:21;9.60;;;8.68;;
11203;SDS011;5659;49.408;11.116;2023-06-22T06:19:47;12.63;;;8.55;;
11203;SDS011;5659;49.408;11.116;2023-06-22T06:22:13;9.57;;;8.52;;
11203;SDS011;5659;49.408;11.116;2023-06-22T06:24:40;10.75;;;8.30;;
11203;SDS011;5659;49.408;11.116;2023-06-22T06:27:06;11.23;;;7.75;;
11203;SDS011;5659;49.408;11.116;2023-06-22T06:29:33;10.60;;;7.97;;
11203;SDS011;5659;49.408;11.116;2023-06-22T06:31:59;11.10;;;7.45;;
11203;SDS011;5659;49.408;11.116;2023-06-22T06:34:25;8.27;;;7.10;;
11203;SDS011;5659;49.408;11.116;2023-06-22T06:36:51;8.25;;;7.45;;
11203;SDS011;5659;49.408;11.116;2023-06-22T06:39:17;13.65;;;7.30;;
11203;SDS011;5659;49.408;11.116;2023-06-22T06:41:43;7.47;;;6.78;;
11203;SDS011;5659;49.408;11.116;2023-06-22T06:44:09;12.55;;;7.25;;
11203;SDS011;5659;49.408;11.116;2023-06-22T06:46:35;9.82;;;7.03;;
11203;SDS011;5659;49.408;11.116;2023-06-22T06:49:01;9.48;;;7.15;;
11203;SDS011;5659;49.408;11.116;2023-06-22T06:51:27;9.05;;;6.90;;
11203;SDS011;5659;49.408;11.116;2023-06-22T06:53:53;8.32;;;6.30;;
11203;SDS011;5659;49.408;11.116;2023-06-22T06:56:19;10.52;;;6.95;;
11203;SDS011;5659;49.408;11.116;2023-06-22T06:58:45;8.65;;;6.55;;
11203;SDS011;5659;49.408;11.116;2023-06-22T07:01:12;10.55;;;6.43;;
11203;SDS011;5659;49.408;11.116;2023-06-22T07:03:38;13.15;;;6.75;;
11203;SDS011;5659;49.408;11.116;2023-06-22T07:06:04;10.35;;;6.55;;
11203;SDS011;5659;49.408;11.116;2023-06-22T07:08:30;7.95;;;6.25;;
11203;SDS011;5659;49.408;11.116;2023-06-22T07:10:56;7.88;;;5.75;;
11203;SDS011;5659;49.408;11.116;2023-06-22T07:13:23;11.23;;;6.22;;
11203;SDS011;5659;49.408;11.116;2023-06-22T07:15:49;10.23;;;5.95;;
11203;SDS011;5659;49.408;11.116;2023-06-22T07:18:14;7.53;;;5.82;;
11203;SDS011;5659;49.408;11.116;2023-06-22T07:20:40;10.20;;;5.53;;
11203;SDS011;5659;49.408;11.116;2023-06-22T07:23:06;11.23;;;6.20;;
11203;SDS011;5659;49.408;11.116;2023-06-22T07:25:32;6.50;;;4.80;;
11203;SDS011;5659;49.408;11.116;2023-06-22T07:28:02;8.45;;;6.00;;
11203;SDS011;5659;49.408;11.116;2023-06-22T07:30:29;10.35;;;5.55;;
11203;SDS011;5659;49.408;11.116;2023-06-22T07:32:56;8.88;;;5.45;;
11203;SDS011;5659;49.408;11.116;2023-06-22T07:35:23;8.10;;;5.32;;
11203;SDS011;5659;49.408;11.116;2023-06-22T07:37:49;11.10;;;5.65;;
11203;SDS011;5659;49.408;11.116;2023-06-22T07:40:15;11.77;;;5.43;;
11203;SDS011;5659;49.408;11.116;2023-06-22T07:42:41;8.75;;;5.63;;
11203;SDS011;5659;49.408;11.116;2023-06-22T07:45:07;12.38;;;5.45;;
11203;SDS011;5659;49.408;11.116;2023-06-22T07:47:33;5.93;;;4.55;;
11203;SDS011;5659;49.408;11.116;2023-06-22T07:50:00;6.80;;;5.60;;
11203;SDS011;5659;49.408;11.116;2023-06-22T07:52:27;11.40;;;5.68;;
11203;SDS011;5659;49.408;11.116;2023-06-22T07:54:53;8.40;;;5.25;;
11203;SDS011;5659;49.408;11.116;2023-06-22T07:57:19;13.10;;;5.63;;
11203;SDS011;5659;49.408;11.116;2023-06-22T07:59:45;11.85;;;5.15;;
11203;SDS011;5659;49.408;11.116;2023-06-22T08:02:11;7.60;;;5.30;;
11203;SDS011;5659;49.408;11.116;2023-06-22T08:04:37;7.82;;;5.35;;
11203;SDS011;5659;49.408;11.116;2023-06-22T08:07:03;9.57;;;4.97;;
11203;SDS011;5659;49.408;11.116;2023-06-22T08:09:30;11.82;;;5.20;;
11203;SDS011;5659;49.408;11.116;2023-06-22T08:11:56;17.23;;;5.25;;
11203;SDS011;5659;49.408;11.116;2023-06-22T08:14:23;11.82;;;5.13;;
11203;SDS011;5659;49.408;11.116;2023-06-22T08:16:49;11.32;;;5.00;;
11203;SDS011;5659;49.408;11.116;2023-06-22T08:19:15;8.93;;;5.15;;
11203;SDS011;5659;49.408;11.116;2023-06-22T08:21:42;6.90;;;4.93;;
11203;SDS011;5659;49.408;11.116;2023-06-22T08:24:08;9.50;;;4.70;;
11203;SDS011;5659;49.408;11.116;2023-06-22T08:26:34;8.52;;;4.55;;
11203;SDS011;5659;49.408;11.116;2023-06-22T08:29:04;8.95;;;4.90;;
11203;SDS011;5659;49.408;11.116;2023-06-22T08:31:31;9.77;;;4.72;;
11203;SDS011;5659;49.408;11.116;2023-06-22T08:33:59;8.60;;;4.47;;
11203;SDS011;5659;49.408;11.116;2023-06-22T08:36:25;7.07;;;4.88;;
11203;SDS011;5659;49.408;11.116;2023-06-22T08:38:54;10.20;;;4.70;;
11203;SDS011;5659;49.408;11.116;2023-06-22T08:41:22;9.10;;;4.80;;
11203;SDS011;5659;49.408;11.116;2023-06-22T08:43:49;10.25;;;4.50;;
11203;SDS011;5659;49.408;11.116;2023-06-22T08:46:15;9.77;;;4.93;;
11203;SDS011;5659;49.408;11.116;2023-06-22T08:48:45;7.68;;;4.93;;
11203;SDS011;5659;49.408;11.116;2023-06-22T08:51:10;6.35;;;4.30;;
11203;SDS011;5659;49.408;11.116;2023-06-22T08:53:36;9.45;;;5.00;;
11203;SDS011;5659;49.408;11.116;2023-06-22T08:56:02;7.47;;;4.60;;
11203;SDS011;5659;49.408;11.116;2023-06-22T08:58:28;9.30;;;4.18;;
11203;SDS011;5659;49.408;11.116;2023-06-22T09:00:54;10.05;;;4.53;;
11203;SDS011;5659;49.408;11.116;2023-06-22T09:03:20;8.35;;;4.32;;
11203;SDS011;5659;49.408;11.116;2023-06-22T09:05:46;11.23;;;5.18;;
11203;SDS011;5659;49.408;11.116;2023-06-22T09:08:12;10.48;;;5.00;;
11203;SDS011;5659;49.408;11.116;2023-06-22T09:10:38;7.97;;;4.65;;
11203;SDS011;5659;49.408;11.116;2023-06-22T09:13:04;8.23;;;5.03;;
11203;SDS011;5659;49.408;11.116;2023-06-22T09:15:30;9.43;;;4.95;;
11203;SDS011;5659;49.408;11.116;2023-06-22T09:17:56;9.88;;;4.57;;
11203;SDS011;5659;49.408;11.116;2023-06-22T09:20:22;10.65;;;5.00;;
11203;SDS011;5659;49.408;11.116;2023-06-22T09:22:48;10.52;;;5.03;;
11203;SDS011;5659;49.408;11.116;2023-06-22T09:25:14;10.55;;;4.40;;
11203;SDS011;5659;49.408;11.116;2023-06-22T09:27:40;13.85;;;4.90;;
11203;SDS011;5659;49.408;11.116;2023-06-22T09:30:07;7.97;;;4.63;;
11203;SDS011;5659;49.408;11.116;2023-06-22T09:32:33;11.25;;;5.38;;
11203;SDS011;5659;49.408;11.116;2023-06-22T09:35:01;14.05;;;5.13;;
11203;SDS011;5659;49.408;11.116;2023-06-22T09:37:28;8.82;;;4.55;;
11203;SDS011;5659;49.408;11.116;2023-06-22T09:39:53;8.43;;;5.10;;
11203;SDS011;5659;49.408;11.116;2023-06-22T09:42:19;13.25;;;5.22;;
11203;SDS011;5659;49.408;11.116;2023-06-22T09:44:46;7.90;;;5.15;;
11203;SDS011;5659;49.408;11.116;2023-06-22T09:47:11;10.25;;;5.15;;
11203;SDS011;5659;49.408;11.116;2023-06-22T09:49:37;11.27;;;5.00;;
11203;SDS011;5659;49.408;11.116;2023-06-22T09:52:04;6.95;;;4.70;;
11203;SDS011;5659;49.408;11.116;2023-06-22T09:54:30;11.82;;;5.07;;
11203;SDS011;5659;49.408;11.116;2023-06-22T09:56:56;9.30;;;4.57;;
11203;SDS011;5659;49.408;11.116;2023-06-22T09:59:22;8.75;;;4.78;;
11203;SDS011;5659;49.408;11.116;2023-06-22T10:01:48;6.80;;;4.90;;
11203;SDS011;5659;49.408;11.116;2023-06-22T10:04:14;9.35;;;4.45;;
11203;SDS011;5659;49.408;11.116;2023-06-22T10:06:40;14.93;;;4.80;;
11203;SDS011;5659;49.408;11.116;2023-06-22T10:09:06;11.80;;;4.70;;
11203;SDS011;5659;49.408;11.116;2023-06-22T10:11:33;11.27;;;4.97;;
11203;SDS011;5659;49.408;11.116;2023-06-22T10:14:00;10.20;;;5.18;;
11203;SDS011;5659;49.408;11.116;2023-06-22T10:16:32;8.70;;;4.88;;
11203;SDS011;5659;49.408;11.116;2023-06-22T10:19:00;8.80;;;4.63;;
11203;SDS011;5659;49.408;11.116;2023-06-22T10:21:26;9.65;;;5.47;;
11203;SDS011;5659;49.408;11.116;2023-06-22T10:23:53;9.68;;;4.90;;
11203;SDS011;5659;49.408;11.116;2023-06-22T10:26:20;14.10;;;7.68;;
11203;SDS011;5659;49.408;11.116;2023-06-22T10:28:46;15.15;;;6.90;;
11203;SDS011;5659;49.408;11.116;2023-06-22T10:31:12;11.93;;;5.45;;
11203;SDS011;5659;49.408;11.116;2023-06-22T10:33:39;13.00;;;4.68;;
11203;SDS011;5659;49.408;11.116;2023-06-22T10:36:06;11.82;;;5.00;;
11203;SDS011;5659;49.408;11.116;2023-06-22T10:38:32;10.80;;;5.18;;
11203;SDS011;5659;49.408;11.116;2023-06-22T10:40:58;12.48;;;4.90;;
11203;SDS011;5659;49.408;11.116;2023-06-22T10:43:24;10.85;;;4.97;;
11203;SDS011;5659;49.408;11.116;2023-06-22T10:45:50;11.15;;;4.93;;
11203;SDS011;5659;49.408;11.116;2023-06-22T10:48:16;11.77;;;5.00;;
11203;SDS011;5659;49.408;11.116;2023-06-22T10:50:42;13.00;;;5.05;;
11203;SDS011;5659;49.408;11.116;2023-06-22T10:53:08;11.60;;;4.95;;
11203;SDS011;5659;49.408;11.116;2023-06-22T10:55:35;11.20;;;4.85;;
11203;SDS011;5659;49.408;11.116;2023-06-22T10:58:01;12.90;;;5.13;;
11203;SDS011;5659;49.408;11.116;2023-06-22T11:00:27;14.73;;;4.45;;
11203;SDS011;5659;49.408;11.116;2023-06-22T11:02:53;9.35;;;4.85;;
11203;SDS011;5659;49.408;11.116;2023-06-22T11:05:19;9.90;;;4.40;;
11203;SDS011;5659;49.408;11.116;2023-06-22T11:07:45;9.90;;;4.63;;
11203;SDS011;5659;49.408;11.116;2023-06-22T11:10:11;9.48;;;4.75;;
11203;SDS011;5659;49.408;11.116;2023-06-22T11:12:38;9.55;;;4.47;;
11203;SDS011;5659;49.408;11.116;2023-06-22T11:15:04;13.98;;;4.90;;
11203;SDS011;5659;49.408;11.116;2023-06-22T11:17:30;11.90;;;4.95;;
11203;SDS011;5659;49.408;11.116;2023-06-22T11:19:56;15.60;;;4.97;;
11203;SDS011;5659;49.408;11.116;2023-06-22T11:22:23;11.38;;;5.13;;
11203;SDS011;5659;49.408;11.116;2023-06-22T11:24:49;9.80;;;4.53;;
11203;SDS011;5659;49.408;11.116;2023-06-22T11:27:15;10.85;;;5.35;;
11203;SDS011;5659;49.408;11.116;2023-06-22T11:29:41;13.70;;;4.72;;
11203;SDS011;5659;49.408;11.116;2023-06-22T11:32:07;8.88;;;4.90;;
11203;SDS011;5659;49.408;11.116;2023-06-22T11:34:33;14.48;;;5.38;;
11203;SDS011;5659;49.408;11.116;2023-06-22T11:37:00;12.48;;;4.82;;
11203;SDS011;5659;49.408;11.116;2023-06-22T11:39:26;12.73;;;4.53;;
11203;SDS011;5659;49.408;11.116;2023-06-22T11:41:52;13.00;;;4.93;;
11203;SDS011;5659;49.408;11.116;2023-06-22T11:44:18;9.10;;;5.10;;
11203;SDS011;5659;49.408;11.116;2023-06-22T11:46:43;13.48;;;5.78;;
11203;SDS011;5659;49.408;11.116;2023-06-22T11:49:09;12.45;;;4.78;;
11203;SDS011;5659;49.408;11.116;2023-06-22T11:51:35;13.05;;;5.25;;
11203;SDS011;5659;49.408;11.116;2023-06-22T11:54:01;12.18;;;4.50;;
11203;SDS011;5659;49.408;11.116;2023-06-22T11:56:28;7.97;;;5.10;;
11203;SDS011;5659;49.408;11.116;2023-06-22T11:58:54;11.88;;;5.20;;
11203;SDS011;5659;49.408;11.116;2023-06-22T12:01:20;12.48;;;5.25;;
11203;SDS011;5659;49.408;11.116;2023-06-22T12:03:46;12.93;;;5.22;;
11203;SDS011;5659;49.408;11.116;2023-06-22T12:06:13;11.75;;;5.43;;
11203;SDS011;5659;49.408;11.116;2023-06-22T12:08:39;14.40;;;5.07;;
11203;SDS011;5659;49.408;11.116;2023-06-22T12:11:05;10.85;;;5.05;;
11203;SDS011;5659;49.408;11.116;2023-06-22T12:13:31;15.43;;;5.43;;
11203;SDS011;5659;49.408;11.116;2023-06-22T12:15:57;12.18;;;4.97;;
11203;SDS011;5659;49.408;11.116;2023-06-22T12:18:23;11.50;;;5.28;;
11203;SDS011;5659;49.408;11.116;2023-06-22T12:20:49;14.23;;;5.32;;
11203;SDS011;5659;49.408;11.116;2023-06-22T12:23:15;12.32;;;5.30;;
11203;SDS011;5659;49.408;11.116;2023-06-22T12:25:41;13.60;;;5.18;;
11203;SDS011;5659;49.408;11.116;2023-06-22T12:28:07;13.73;;;5.05;;
11203;SDS011;5659;49.408;11.116;2023-06-22T12:30:33;13.98;;;4.82;;
11203;SDS011;5659;49.408;11.116;2023-06-22T12:32:59;18.08;;;5.63;;
11203;SDS011;5659;49.408;11.116;2023-06-22T12:35:25;15.02;;;5.18;;
11203;SDS011;5659;49.408;11.116;2023-06-22T12:37:51;14.07;;;5.10;;
11203;SDS011;5659;49.408;11.116;2023-06-22T12:40:17;15.10;;;5.20;;
11203;SDS011;5659;49.408;11.116;2023-06-22T12:42:44;13.40;;;5.00;;
11203;SDS011;5659;49.408;11.116;2023-06-22T12:45:10;18.20;;;5.28;;
11203;SDS011;5659;49.408;11.116;2023-06-22T12:47:36;12.40;;;4.93;;
11203;SDS011;5659;49.408;11.116;2023-06-22T12:50:02;15.25;;;4.70;;
11203;SDS011;5659;49.408;11.116;2023-06-22T12:52:29;13.02;;;5.32;;
11203;SDS011;5659;49.408;11.116;2023-06-22T12:54:57;15.18;;;5.00;;
11203;SDS011;5659;49.408;11.116;2023-06-22T12:57:23;12.32;;;4.95;;
11203;SDS011;5659;49.408;11.116;2023-06-22T12:59:49;12.73;;;5.03;;
11203;SDS011;5659;49.408;11.116;2023-06-22T13:02:15;14.50;;;5.13;;
11203;SDS011;5659;49.408;11.116;2023-06-22T13:04:41;13.65;;;5.55;;
11203;SDS011;5659;49.408;11.116;2023-06-22T13:07:08;14.77;;;5.40;;
11203;SDS011;5659;49.408;11.116;2023-06-22T13:09:34;10.60;;;4.82;;
11203;SDS011;5659;49.408;11.116;2023-06-22T13:12:01;16.02;;;5.15;;
11203;SDS011;5659;49.408;11.116;2023-06-22T13:14:27;13.35;;;5.05;;
11203;SDS011;5659;49.408;11.116;2023-06-22T13:16:53;18.67;;;4.88;;
11203;SDS011;5659;49.408;11.116;2023-06-22T13:19:19;9.80;;;4.70;;
11203;SDS011;5659;49.408;11.116;2023-06-22T13:21:45;12.82;;;5.38;;
11203;SDS011;5659;49.408;11.116;2023-06-22T13:24:11;14.65;;;5.15;;
11203;SDS011;5659;49.408;11.116;2023-06-22T13:26:37;15.88;;;5.18;;
11203;SDS011;5659;49.408;11.116;2023-06-22T13:29:03;12.65;;;5.38;;
11203;SDS011;5659;49.408;11.116;2023-06-22T13:31:30;10.15;;;5.07;;
11203;SDS011;5659;49.408;11.116;2023-06-22T13:33:55;11.00;;;5.00;;
11203;SDS011;5659;49.408;11.116;2023-06-22T13:36:21;22.63;;;5.65;;
11203;SDS011;5659;49.408;11.116;2023-06-22T13:38:48;13.80;;;5.53;;
11203;SDS011;5659;49.408;11.116;2023-06-22T13:41:14;14.52;;;5.55;;
11203;SDS011;5659;49.408;11.116;2023-06-22T13:43:40;19.67;;;5.95;;
11203;SDS011;5659;49.408;11.116;2023-06-22T13:46:06;12.50;;;5.28;;
11203;SDS011;5659;49.408;11.116;2023-06-22T13:48:32;15.38;;;5.53;;
11203;SDS011;5659;49.408;11.116;2023-06-22T13:50:58;18.48;;;5.45;;
11203;SDS011;5659;49.408;11.116;2023-06-22T13:53:24;11.63;;;5.53;;
11203;SDS011;5659;49.408;11.116;2023-06-22T13:55:51;18.30;;;5.75;;
11203;SDS011;5659;49.408;11.116;2023-06-22T13:58:17;17.05;;;5.88;;
11203;SDS011;5659;49.408;11.116;2023-06-22T14:00:44;15.27;;;6.32;;
11203;SDS011;5659;49.408;11.116;2023-06-22T14:03:10;14.85;;;5.47;;
11203;SDS011;5659;49.408;11.116;2023-06-22T14:05:36;11.80;;;5.50;;
11203;SDS011;5659;49.408;11.116;2023-06-22T14:08:02;8.30;;;5.10;;
11203;SDS011;5659;49.408;11.116;2023-06-22T14:10:28;16.40;;;5.82;;
11203;SDS011;5659;49.408;11.116;2023-06-22T14:12:54;12.23;;;5.38;;
11203;SDS011;5659;49.408;11.116;2023-06-22T14:15:20;14.18;;;5.25;;
11203;SDS011;5659;49.408;11.116;2023-06-22T14:17:46;11.02;;;5.18;;
11203;SDS011;5659;49.408;11.116;2023-06-22T14:20:12;13.40;;;5.15;;
11203;SDS011;5659;49.408;11.116;2023-06-22T14:22:38;12.68;;;5.05;;
11203;SDS011;5659;49.408;11.116;2023-06-22T14:25:05;15.32;;;5.03;;
11203;SDS011;5659;49.408;11.116;2023-06-22T14:27:31;17.05;;;6.07;;
11203;SDS011;5659;49.408;11.116;2023-06-22T14:29:57;14.63;;;5.72;;
11203;SDS011;5659;49.408;11.116;2023-06-22T14:32:23;11.27;;;4.88;;
11203;SDS011;5659;49.408;11.116;2023-06-22T14:34:50;13.35;;;5.32;;